Bf Caroda — V2CV5 — position and weather

sailwx.info

Track history (hours):
 
Tides and Currents Weather Stations Pressure Air Temp Water Temp Dewpoint Dewpoint Depression Visibility Wind Speed Wind Dir Waves Ship Positions

Bf Caroda

Last reported at 2016-Aug-26 06:33 UTC. Time now 2016-Aug-26 10:14 UTC.
Position N 39°07' E 005°10'.

Length 134 m; draft 6.9 m.

Type: Cargo ship. MMSI: 304678000.

Date/timePositionNaut miles runAvg speedWind from/ knotsBaromVisibWave heightAir tempDewpointWater temp
2016-Aug-26 06:33N 39°07' E 005°10'3514.4
2016-Aug-26 04:08N 38°39' E 004°44'138 5.4
2016-Aug-25 02:25N 36°46' E 003°04'0 0.0
2016-Aug-24 06:33N 36°46' E 003°04'7 3.5
2016-Aug-24 04:33N 36°52' E 003°01'260 8.9
2016-Aug-22 23:29N 35°06' W 001°52'291 7.8
2016-Aug-21 10:08N 39°16' E 001°16'814.1
2016-Aug-21 09:33N 39°23' E 001°23'2813.8
2016-Aug-21 07:33N 39°45' E 001°44'1414.5
2016-Aug-21 06:33N 39°56' E 001°55'1413.9
2016-Aug-21 05:33N 40°07' E 002°06'1413.9
2016-Aug-21 04:34N 40°19' E 002°17'1414.1
2016-Aug-21 03:33N 40°30' E 002°28'1414.3
2016-Aug-21 02:33N 40°42' E 002°39'1514.7
2016-Aug-21 01:33N 40°53' E 002°51'1515.2
2016-Aug-21 00:33N 41°06' E 003°03'1515.3
2016-Aug-20 23:33N 41°18' E 003°14'1715.7
2016-Aug-20 22:29N 41°31' E 003°28'7614.9
2016-Aug-20 17:23N 42°32' E 004°29'4414.5
2016-Aug-20 14:24N 43°07' E 005°04'1113.2
2016-Aug-20 13:33N 43°17' E 005°11'7 6.8
2016-Aug-20 12:27N 43°21' E 005°20'0 0.0
2016-Aug-20 11:33N 43°21' E 005°20'0 0.0
2016-Aug-20 09:20N 43°21' E 005°20'0 0.0
2016-Aug-20 08:28N 43°21' E 005°20'0 0.0
2016-Aug-20 07:25N 43°21' E 005°20'0 0.0
2016-Aug-20 06:15N 43°21' E 005°20'0 0.0
2016-Aug-20 05:27N 43°21' E 005°20'0 0.0
2016-Aug-20 04:18N 43°21' E 005°20'0 0.0
2016-Aug-19 14:21N 43°21' E 005°20'0 0.0
2016-Aug-19 08:27N 43°21' E 005°20'0 0.0
2016-Aug-19 07:33N 43°21' E 005°20'0 0.0
2016-Aug-19 06:33N 43°21' E 005°20'0 0.0
2016-Aug-19 05:33N 43°21' E 005°20'0 0.0
2016-Aug-19 04:29N 43°21' E 005°20'0 0.0
2016-Aug-19 03:18N 43°21' E 005°20'0 0.0
2016-Aug-19 02:33N 43°21' E 005°20'0 0.0
2016-Aug-19 01:33N 43°21' E 005°20'0 0.0
2016-Aug-19 00:31N 43°21' E 005°20'0 0.0
2016-Aug-18 23:17N 43°21' E 005°20'0 0.0
2016-Aug-18 22:33N 43°21' E 005°20'0 0.0
2016-Aug-18 21:29N 43°21' E 005°20'0 0.0
2016-Aug-18 20:22N 43°21' E 005°20'0 0.0
2016-Aug-18 19:06N 43°21' E 005°20'0 0.0
2016-Aug-18 16:28N 43°21' E 005°20'5 5.6
2016-Aug-18 15:33N 43°18' E 005°14'2211.0
2016-Aug-18 13:33N 42°59' E 004°59'1412.5
2016-Aug-18 12:26N 43°04' E 005°17'2713.9
2016-Aug-18 10:31N 42°51' E 005°49'12514.0
2016-Aug-18 01:34N 43°53' E 008°19'1514.9
2016-Aug-18 00:33N 44°04' E 008°34'1514.6
2016-Aug-17 23:34N 44°14' E 008°49'1111.0
2016-Aug-17 22:33N 44°24' E 008°55'1 1.0
2016-Aug-17 21:32N 44°24' E 008°54'0 0.0
2016-Aug-17 20:28N 44°24' E 008°54'0 0.0
2016-Aug-17 19:22N 44°24' E 008°54'0 0.0
2016-Aug-17 18:34N 44°24' E 008°54'0 0.0
2016-Aug-17 17:27N 44°24' E 008°54'0 0.0
2016-Aug-17 16:33N 44°24' E 008°54'0 0.0
2016-Aug-17 15:32N 44°24' E 008°54'0 0.4
2016-Aug-17 14:33N 44°24' E 008°54'1211.7
2016-Aug-17 13:33N 44°15' E 009°04'1514.9
2016-Aug-17 12:33N 44°05' E 009°20'22 9.2
2016-Aug-17 10:11N 44°06' E 009°51'0 0.0
2016-Aug-17 09:32N 44°06' E 009°51'0 0.0
2016-Aug-17 08:31N 44°06' E 009°51'0 0.0
2016-Aug-17 07:31N 44°06' E 009°51'0 0.0
2016-Aug-17 06:30N 44°06' E 009°51'0 0.0
2016-Aug-17 05:33N 44°06' E 009°51'0 0.0
2016-Aug-17 04:29N 44°06' E 009°51'0 0.0
2016-Aug-17 03:33N 44°06' E 009°51'3 3.0
2016-Aug-17 02:28N 44°04' E 009°53'0 0.1
2016-Aug-17 01:33N 44°04' E 009°53'0 0.1
2016-Aug-17 00:33N 44°04' E 009°53'0 0.1
2016-Aug-16 23:32N 44°04' E 009°53'0 0.0
2016-Aug-16 22:32N 44°04' E 009°53'0 0.0
2016-Aug-16 21:31N 44°04' E 009°53'0 0.1
2016-Aug-16 20:31N 44°04' E 009°53'0 0.0
2016-Aug-16 19:31N 44°04' E 009°53'0 0.1
2016-Aug-16 18:33N 44°04' E 009°53'0 0.0
2016-Aug-16 17:33N 44°04' E 009°53'0 0.0
2016-Aug-16 16:32N 44°04' E 009°53'0 0.0
2016-Aug-16 15:32N 44°04' E 009°53'0 0.0
2016-Aug-16 14:31N 44°04' E 009°53'0 0.0
2016-Aug-16 13:31N 44°04' E 009°53'0 0.0
2016-Aug-16 12:15N 44°04' E 009°53'0 0.0
2016-Aug-16 11:33N 44°04' E 009°53'0 0.1
2016-Aug-16 10:34N 44°04' E 009°53'1010.1
2016-Aug-16 09:33N 43°57' E 010°03'1212.1
2016-Aug-16 08:33N 43°45' E 009°58'1515.2
2016-Aug-16 07:33N 43°35' E 009°43'1515.3
2016-Aug-16 06:33N 43°24' E 009°28'  
Track history (hours):
 
Tides and Currents Weather Stations Pressure Air Temp Water Temp Dewpoint Dewpoint Depression Visibility Wind Speed Wind Dir Waves Ship Positions

Bf Caroda

Last reported at 2016-Aug-26 06:33 UTC. Time now 2016-Aug-26 10:14 UTC.
Position N 39°07' E 005°10'.

Length 134 m; draft 6.9 m.

Type: Cargo ship. MMSI: 304678000.

Date/timePositionNaut miles runAvg speedWind from/ knotsBaromVisibWave heightAir tempDewpointWater temp
2016-Aug-26 06:33N 39°07' E 005°10'3514.4
2016-Aug-26 04:08N 38°39' E 004°44'138 5.4
2016-Aug-25 02:25N 36°46' E 003°04'0 0.0
2016-Aug-24 06:33N 36°46' E 003°04'7 3.5
2016-Aug-24 04:33N 36°52' E 003°01'260 8.9
2016-Aug-22 23:29N 35°06' W 001°52'291 7.8
2016-Aug-21 10:08N 39°16' E 001°16'814.1
2016-Aug-21 09:33N 39°23' E 001°23'2813.8
2016-Aug-21 07:33N 39°45' E 001°44'1414.5
2016-Aug-21 06:33N 39°56' E 001°55'1413.9
2016-Aug-21 05:33N 40°07' E 002°06'1413.9
2016-Aug-21 04:34N 40°19' E 002°17'1414.1
2016-Aug-21 03:33N 40°30' E 002°28'1414.3
2016-Aug-21 02:33N 40°42' E 002°39'1514.7
2016-Aug-21 01:33N 40°53' E 002°51'1515.2
2016-Aug-21 00:33N 41°06' E 003°03'1515.3
2016-Aug-20 23:33N 41°18' E 003°14'1715.7
2016-Aug-20 22:29N 41°31' E 003°28'7614.9
2016-Aug-20 17:23N 42°32' E 004°29'4414.5
2016-Aug-20 14:24N 43°07' E 005°04'1113.2
2016-Aug-20 13:33N 43°17' E 005°11'7 6.8
2016-Aug-20 12:27N 43°21' E 005°20'0 0.0
2016-Aug-20 11:33N 43°21' E 005°20'0 0.0
2016-Aug-20 09:20N 43°21' E 005°20'0 0.0
2016-Aug-20 08:28N 43°21' E 005°20'0 0.0
2016-Aug-20 07:25N 43°21' E 005°20'0 0.0
2016-Aug-20 06:15N 43°21' E 005°20'0 0.0
2016-Aug-20 05:27N 43°21' E 005°20'0 0.0
2016-Aug-20 04:18N 43°21' E 005°20'0 0.0
2016-Aug-19 14:21N 43°21' E 005°20'0 0.0
2016-Aug-19 08:27N 43°21' E 005°20'0 0.0
2016-Aug-19 07:33N 43°21' E 005°20'0 0.0
2016-Aug-19 06:33N 43°21' E 005°20'0 0.0
2016-Aug-19 05:33N 43°21' E 005°20'0 0.0
2016-Aug-19 04:29N 43°21' E 005°20'0 0.0
2016-Aug-19 03:18N 43°21' E 005°20'0 0.0
2016-Aug-19 02:33N 43°21' E 005°20'0 0.0
2016-Aug-19 01:33N 43°21' E 005°20'0 0.0
2016-Aug-19 00:31N 43°21' E 005°20'0 0.0
2016-Aug-18 23:17N 43°21' E 005°20'0 0.0
2016-Aug-18 22:33N 43°21' E 005°20'0 0.0
2016-Aug-18 21:29N 43°21' E 005°20'0 0.0
2016-Aug-18 20:22N 43°21' E 005°20'0 0.0
2016-Aug-18 19:06N 43°21' E 005°20'0 0.0
2016-Aug-18 16:28N 43°21' E 005°20'5 5.6
2016-Aug-18 15:33N 43°18' E 005°14'2211.0
2016-Aug-18 13:33N 42°59' E 004°59'1412.5
2016-Aug-18 12:26N 43°04' E 005°17'2713.9
2016-Aug-18 10:31N 42°51' E 005°49'12514.0
2016-Aug-18 01:34N 43°53' E 008°19'1514.9
2016-Aug-18 00:33N 44°04' E 008°34'1514.6
2016-Aug-17 23:34N 44°14' E 008°49'1111.0
2016-Aug-17 22:33N 44°24' E 008°55'1 1.0
2016-Aug-17 21:32N 44°24' E 008°54'0 0.0
2016-Aug-17 20:28N 44°24' E 008°54'0 0.0
2016-Aug-17 19:22N 44°24' E 008°54'0 0.0
2016-Aug-17 18:34N 44°24' E 008°54'0 0.0
2016-Aug-17 17:27N 44°24' E 008°54'0 0.0
2016-Aug-17 16:33N 44°24' E 008°54'0 0.0
2016-Aug-17 15:32N 44°24' E 008°54'0 0.4
2016-Aug-17 14:33N 44°24' E 008°54'1211.7
2016-Aug-17 13:33N 44°15' E 009°04'1514.9
2016-Aug-17 12:33N 44°05' E 009°20'22 9.2
2016-Aug-17 10:11N 44°06' E 009°51'0 0.0
2016-Aug-17 09:32N 44°06' E 009°51'0 0.0
2016-Aug-17 08:31N 44°06' E 009°51'0 0.0
2016-Aug-17 07:31N 44°06' E 009°51'0 0.0
2016-Aug-17 06:30N 44°06' E 009°51'0 0.0
2016-Aug-17 05:33N 44°06' E 009°51'0 0.0
2016-Aug-17 04:29N 44°06' E 009°51'0 0.0
2016-Aug-17 03:33N 44°06' E 009°51'3 3.0
2016-Aug-17 02:28N 44°04' E 009°53'0 0.1
2016-Aug-17 01:33N 44°04' E 009°53'0 0.1
2016-Aug-17 00:33N 44°04' E 009°53'0 0.1
2016-Aug-16 23:32N 44°04' E 009°53'0 0.0
2016-Aug-16 22:32N 44°04' E 009°53'0 0.0
2016-Aug-16 21:31N 44°04' E 009°53'0 0.1
2016-Aug-16 20:31N 44°04' E 009°53'0 0.0
2016-Aug-16 19:31N 44°04' E 009°53'0 0.1
2016-Aug-16 18:33N 44°04' E 009°53'0 0.0
2016-Aug-16 17:33N 44°04' E 009°53'0 0.0
2016-Aug-16 16:32N 44°04' E 009°53'0 0.0
2016-Aug-16 15:32N 44°04' E 009°53'0 0.0
2016-Aug-16 14:31N 44°04' E 009°53'0 0.0
2016-Aug-16 13:31N 44°04' E 009°53'0 0.0
2016-Aug-16 12:15N 44°04' E 009°53'0 0.0
2016-Aug-16 11:33N 44°04' E 009°53'0 0.1
2016-Aug-16 10:34N 44°04' E 009°53'1010.1
2016-Aug-16 09:33N 43°57' E 010°03'1212.1
2016-Aug-16 08:33N 43°45' E 009°58'1515.2
2016-Aug-16 07:33N 43°35' E 009°43'1515.3
2016-Aug-16 06:33N 43°24' E 009°28'  

Dump ship's entire track history